Evansville Regional Airport
KEVV : now visible

Airfield :











YOU CAN JOIN US ON...

 
LOGIN :

Register | Disclaimer

   EN    FR    IT 

 









Legend :    VFR   Marginal VFR   IFR   Intensive IFR   Very Intensive IFR
Visi :
Ceiling :
>= 8 km
>= 3000ft
5 to 8 km
1000 to 3000 ft
1500m to 5 km
500 to 1000 ft
800 to 1500m
200 to 500 ft
< 800m
< 200 ft
Symbols :   Thunderstorms  Fog  Heavy snow  Heavy precipitations  Wind > 20 kt






- Airport Elevation : 418 ft
- IATA code : EVV


KEVV - Evansville Regional

CURRENT METAR :
  • 130454Z AUTO 16004KT 10SM CLR 03/M04 A3015 RMK AO2 SLP212 T00331039

EXPIRED METARs :
  • 130354Z 15005KT 10SM CLR 04/M03 A3016 RMK AO2 SLP215 T00391033
  • 130254Z 00000KT 10SM CLR 04/M03 A3018 RMK AO2 SLP224 T00441033 58013

TAF KEVV
Valid from the 13 at 06:00 until the 14 at 06:00 UTC


130520Z 1306/1406 VRB02KT P6SM SCT250
FM131200 VRB03KT P6SM OVC025
FM131800 18005KT P6SM OVC015
FM140000 VRB02KT 4SM BR SCT007 OVC015



MET'MAP, your aeronautical weather chart ! - Copyright ORBIFLY December 2007 - Disclaimer

ORBIFLY MET'MAP TEAM :

Programming & Development : Alexandra Zaïnal
Concept & original design : Baudouin d'Aumeries
Assistance for programming : Marc-Olivier Méhu
Technical & hardware support : Manuel Goepfert

Contact : metmap@orbifly.com




SOURCES & CREDITS :

   NOAA       Earth
Advisory